CheckWX is a tool to help pilots better visualize weather data.  It is not intended as a substitute for an official pre-flight weather briefing.

12:47:37 UTC

KFPK METAR
Fitch H Beach Airport
Charlotte, Michigan, USA
Current

31 mins ago

KFPK 191217Z AUTO 00000KT 10SM CLR 14/11 A3015 RMK AO2 T01430112
Observed
Sep-19 @ 12:17 UTC
Visibility
10 SM
Flight Rules
VFR
Cloud Levels
  • Clear skies
Temperature
14°C / 57°F
Dewpoint
11°C / 52°F
Humidity
82%
Altimeter
30.15" Hg
Pressure
1021.02 hPa
Previous

1 hour ago

KFPK 191135Z AUTO 00000KT 10SM CLR 12/10 A3014 RMK AO2 T01180104
Observed
Sep-19 @ 11:35 UTC
Visibility
10 SM
Flight Rules
VFR
Cloud Levels
  • Clear skies
Temperature
12°C / 54°F
Dewpoint
10°C / 50°F
Humidity
88%
Altimeter
30.14" Hg
Pressure
1020.62 hPa
Previous

2 hours ago

KFPK 191116Z AUTO 00000KT 10SM CLR 12/11 A3014 RMK AO2 T01210110
Observed
Sep-19 @ 11:16 UTC
Visibility
10 SM
Flight Rules
VFR
Cloud Levels
  • Clear skies
Temperature
12°C / 54°F
Dewpoint
11°C / 52°F
Humidity
94%
Altimeter
30.14" Hg
Pressure
1020.62 hPa